Time;durP1;ratioP1;P1;durP2;ratioP2;P2;SDS_P1;SDS_P2;PMS_P1;PMS_P2;Temp;Humidity;BMP_temperature;BMP_pressure;BME280_temperature;BME280_humidity;BME280_pressure;Samples;Min_cycle;Max_cycle;Signal;HPM_P1;HPM_P2
2022/05/07 00:01:55;;;;;;;6.70;5.40;;;;;;;11.29;65.05;97827.55;109782;1250;68616;-67
2022/05/07 00:04:27;;;;;;;6.40;4.80;;;;;;;11.30;64.28;97821.88;109958;1250;69846;-66
2022/05/07 00:06:56;;;;;;;6.30;4.10;;;;;;;11.32;64.40;97820.69;109856;1251;59665;-67
2022/05/07 00:09:26;;;;;;;5.70;5.10;;;;;;;11.34;63.54;97823.71;109975;1250;59685;-69
2022/05/07 00:11:56;;;;;;;5.60;4.10;;;;;;;11.38;63.12;97825.38;109915;1250;71364;-67
2022/05/07 00:14:26;;;;;;;5.80;4.40;;;;;;;11.42;62.25;97831.35;109999;1250;68151;-67
2022/05/07 00:19:46;;;;;;;6.80;4.60;;;;;;;11.52;61.51;97830.48;109932;1250;59792;-67
2022/05/07 00:22:15;;;;;;;6.30;4.60;;;;;;;11.56;61.43;97828.85;110032;1249;59682;-67
2022/05/07 00:24:45;;;;;;;5.10;4.60;;;;;;;11.58;61.33;97828.68;109998;1249;71567;-67
2022/05/07 00:27:15;;;;;;;7.20;4.90;;;;;;;11.60;61.37;97828.20;109925;1250;68574;-67
2022/05/07 00:29:46;;;;;;;6.60;5.20;;;;;;;11.62;61.12;97830.17;109999;1250;69376;-69
2022/05/07 00:32:15;;;;;;;5.40;4.30;;;;;;;11.63;61.08;97827.98;109961;1250;59685;-67
2022/05/07 00:34:45;;;;;;;;;;;;;;;11.63;60.50;97823.07;109933;1250;59752;-68
2022/05/07 00:37:14;;;;;;;7.90;4.30;;;;;;;11.63;60.25;97820.45;109993;1250;71537;-69
2022/05/07 00:39:47;;;;;;;6.20;4.30;;;;;;;11.64;60.25;97815.87;109966;1250;68545;-69
2022/05/07 00:42:16;;;;;;;6.20;4.00;;;;;;;11.64;60.58;97819.70;110033;1250;68657;-66
2022/05/07 00:44:46;;;;;;;6.50;5.40;;;;;;;11.63;60.63;97816.79;109837;1250;59752;-69
2022/05/07 00:47:15;;;;;;;5.90;4.00;;;;;;;11.63;60.26;97818.55;109913;1250;59736;-66
2022/05/07 00:49:47;;;;;;;6.80;5.00;;;;;;;11.62;60.18;97817.21;109866;1250;71361;-67
2022/05/07 00:52:18;;;;;;;7.50;5.70;;;;;;;11.60;60.12;97817.02;109965;1250;67778;-68
2022/05/07 00:54:48;;;;;;;9.80;5.00;;;;;;;11.58;59.98;97816.97;110034;1250;69225;-69
2022/05/07 00:57:18;;;;;;;6.40;4.40;;;;;;;11.56;60.08;97819.23;109997;1250;59741;-69
2022/05/07 00:59:48;;;;;;;7.10;4.30;;;;;;;11.54;60.25;97819.02;109925;1250;59665;-67
2022/05/07 01:02:19;;;;;;;7.00;4.10;;;;;;;11.51;60.11;97816.61;109955;1250;70805;-68
2022/05/07 01:04:48;;;;;;;7.00;4.60;;;;;;;11.47;60.03;97816.30;109957;1250;68555;-67
2022/05/07 01:07:18;;;;;;;;;;;;;;;11.45;60.45;97814.04;109973;1250;69418;-67
2022/05/07 01:09:49;;;;;;;4.70;3.90;;;;;;;11.40;60.44;97813.71;109859;1247;59731;-67
2022/05/07 01:12:19;;;;;;;5.60;4.40;;;;;;;11.37;60.83;97814.12;109906;1250;59677;-67
2022/05/07 01:14:49;;;;;;;6.00;4.30;;;;;;;11.33;60.61;97812.82;109673;1250;71351;-66
2022/05/07 01:17:19;;;;;;;6.40;4.80;;;;;;;11.29;60.60;97815.57;109850;1250;67689;-67
2022/05/07 01:19:52;;;;;;;6.70;4.90;;;;;;;11.24;61.16;97813.95;109932;1250;69625;-68
2022/05/07 01:22:22;;;;;;;4.80;3.80;;;;;;;11.20;60.73;97810.86;109947;1250;59779;-68
2022/05/07 01:24:52;;;;;;;4.40;3.50;;;;;;;11.19;60.67;97811.15;109790;1250;59649;-67
2022/05/07 01:27:22;;;;;;;5.30;4.00;;;;;;;11.16;60.74;97812.70;109875;1250;71589;-68
2022/05/07 01:29:51;;;;;;;7.00;4.50;;;;;;;11.15;60.70;97816.14;109954;1250;68141;-69
2022/05/07 01:32:22;;;;;;;5.50;4.90;;;;;;;11.11;60.72;97815.54;109949;1251;68736;-67
2022/05/07 01:34:53;;;;;;;;;;;;;;;11.07;61.71;97810.19;109942;1251;59717;-69
2022/05/07 01:37:25;;;;;;;8.40;4.40;;;;;;;11.02;61.49;97812.48;109929;1250;59680;-66
2022/05/07 01:39:55;;;;;;;6.10;4.40;;;;;;;10.98;61.79;97811.03;109793;1251;70856;-67
2022/05/07 01:42:25;;;;;;;7.90;4.40;;;;;;;10.94;61.70;97810.75;109997;1250;67764;-67
2022/05/07 01:44:55;;;;;;;5.00;4.20;;;;;;;10.90;62.14;97807.20;109861;1250;69421;-66
2022/05/07 01:50:14;;;;;;;5.30;4.30;;;;;;;10.84;61.76;97809.33;109968;1250;59829;-73
2022/05/07 01:52:44;;;;;;;6.10;4.70;;;;;;;10.80;62.26;97807.51;109798;1250;70711;-69
2022/05/07 01:55:15;;;;;;;5.50;4.40;;;;;;;10.77;61.96;97808.42;110041;1250;67781;-71
2022/05/07 01:57:45;;;;;;;6.80;4.40;;;;;;;10.75;61.83;97812.80;110114;1250;69191;-68
2022/05/07 02:00:15;;;;;;;5.60;4.80;;;;;;;10.68;62.63;97812.83;109856;1251;59741;-66
2022/05/07 02:02:44;;;;;;;6.20;4.80;;;;;;;10.63;63.08;97812.65;109998;1250;59977;-67
2022/05/07 02:05:20;;;;;;;6.60;5.10;;;;;;;10.58;63.07;97816.30;110206;1249;70799;-67
2022/05/07 02:07:50;;;;;;;6.00;5.10;;;;;;;10.56;63.47;97816.49;110073;1250;68538;-67
2022/05/07 02:10:20;;;;;;;6.10;4.30;;;;;;;10.54;62.51;97813.48;109893;1250;69479;-68
2022/05/07 02:12:50;;;;;;;7.00;4.30;;;;;;;10.53;62.94;97812.84;109918;1251;59676;-69
2022/05/07 02:15:21;;;;;;;6.20;4.90;;;;;;;10.52;62.62;97811.69;110150;1250;59719;-67
2022/05/07 02:17:52;;;;;;;5.30;4.30;;;;;;;10.50;62.65;97813.53;110186;1249;70906;-67
2022/05/07 02:20:23;;;;;;;5.60;3.90;;;;;;;10.47;62.95;97811.64;109970;1250;68559;-67
2022/05/07 02:22:55;;;;;;;6.00;4.70;;;;;;;10.43;63.46;97811.40;109845;1250;68652;-66
2022/05/07 02:25:25;;;;;;;6.00;4.70;;;;;;;10.38;63.33;97807.15;109906;1251;59730;-66
2022/05/07 02:28:00;;;;;;;6.60;4.40;;;;;;;10.34;64.29;97805.16;109920;1250;60008;-68
2022/05/07 02:30:30;;;;;;;6.00;4.80;;;;;;;10.31;63.02;97806.27;110097;1250;71564;-68
2022/05/07 02:33:05;;;;;;;5.50;4.30;;;;;;;10.27;62.62;97808.08;110039;1250;68574;-66
2022/05/07 02:35:37;;;;;;;7.50;5.30;;;;;;;10.24;63.13;97806.18;109667;1253;69657;-69
2022/05/07 02:38:07;;;;;;;6.80;5.10;;;;;;;10.21;63.02;97801.84;110167;1250;59676;-66
2022/05/07 02:43:31;;;;;;;6.90;4.70;;;;;;;10.14;63.82;97804.36;109936;1250;71601;-68
2022/05/07 02:46:01;;;;;;;5.20;4.60;;;;;;;10.11;64.82;97806.27;110089;1250;68561;-69
2022/05/07 02:48:35;;;;;;;9.10;5.70;;;;;;;10.07;67.06;97810.06;109910;1251;68531;-69
2022/05/07 02:51:06;;;;;;;7.70;5.80;;;;;;;9.97;67.89;97812.11;110188;1250;59722;-70
2022/05/07 02:53:36;;;;;;;;;;;;;;;9.88;67.81;97807.61;109851;1250;59702;-65
2022/05/07 02:56:07;;;;;;;5.90;4.40;;;;;;;9.78;67.42;97808.59;109718;1253;72330;-71
2022/05/07 02:58:37;;;;;;;4.90;4.10;;;;;;;9.73;67.47;97805.63;110190;1249;68555;-68
2022/05/07 03:01:08;;;;;;;6.30;4.60;;;;;;;9.68;67.33;97807.60;110023;1250;69329;-69
2022/05/07 03:03:38;;;;;;;6.40;4.00;;;;;;;9.65;67.65;97805.92;109892;1250;59735;-67
2022/05/07 03:06:08;;;;;;;5.90;4.30;;;;;;;9.62;66.72;97811.31;110003;1250;59803;-69
2022/05/07 03:08:39;;;;;;;5.30;4.00;;;;;;;9.61;66.18;97812.44;110137;1250;70907;-67
2022/05/07 03:11:09;;;;;;;8.50;4.50;;;;;;;9.60;66.07;97813.33;110007;1249;68540;-68
2022/05/07 03:13:39;;;;;;;7.80;3.90;;;;;;;9.61;66.66;97811.91;110143;1250;69535;-67
2022/05/07 03:16:08;;;;;;;4.30;3.70;;;;;;;9.62;66.31;97814.32;109806;1250;59686;-69
2022/05/07 03:18:39;;;;;;;5.30;4.10;;;;;;;9.61;65.10;97814.52;110009;1251;59635;-68
2022/05/07 03:21:09;;;;;;;6.00;4.90;;;;;;;9.61;66.41;97812.60;109823;1251;70519;-68
2022/05/07 03:23:42;;;;;;;8.70;5.20;;;;;;;9.60;67.01;97814.21;110134;1250;68419;-67
2022/05/07 03:26:11;;;;;;;8.80;6.00;;;;;;;9.61;69.62;97817.31;110070;1250;69243;-68
2022/05/07 03:28:42;;;;;;;9.70;5.80;;;;;;;9.59;70.58;97813.11;109876;1251;59726;-66
2022/05/07 03:31:13;;;;;;;7.50;5.00;;;;;;;9.56;71.21;97812.06;110211;1250;59606;-66
2022/05/07 03:33:43;;;;;;;7.60;6.20;;;;;;;9.53;71.37;97809.61;109938;1250;71534;-66
2022/05/07 03:36:15;;;;;;;10.60;6.70;;;;;;;9.51;71.58;97808.86;109974;1251;68367;-66
2022/05/07 03:38:44;;;;;;;9.00;6.10;;;;;;;9.50;71.63;97811.21;109835;1251;68516;-66
2022/05/07 03:41:19;;;;;;;10.10;5.50;;;;;;;9.50;71.07;97809.98;110027;1251;59702;-67
2022/05/07 03:43:48;;;;;;;6.40;5.10;;;;;;;9.50;70.83;97811.59;110173;1250;59625;-66
2022/05/07 03:46:17;;;;;;;8.00;5.70;;;;;;;9.51;70.13;97815.13;109987;1250;71591;-71
2022/05/07 03:48:52;;;;;;;8.20;5.00;;;;;;;9.53;71.06;97816.56;109936;1250;68478;-68
2022/05/07 03:51:21;;;;;;;5.80;5.20;;;;;;;9.56;70.19;97818.15;109952;1251;68699;-68
2022/05/07 03:53:55;;;;;;;7.20;5.60;;;;;;;9.57;69.97;97816.19;109969;1251;59696;-68
2022/05/07 03:56:25;;;;;;;6.20;4.50;;;;;;;9.62;69.89;97819.52;109922;1250;59716;-68
2022/05/07 03:58:54;;;;;;;7.60;4.80;;;;;;;9.68;68.78;97819.46;110187;1249;70638;-66
2022/05/07 04:01:52;;;;;;;5.10;3.70;;;;;;;9.77;67.48;97821.35;109883;1251;68563;-66
2022/05/07 04:04:29;;;;;;;8.20;6.30;;;;;;;9.84;68.79;97822.29;110178;1250;69409;-66
2022/05/07 04:07:04;;;;;;;9.00;5.90;;;;;;;9.88;70.89;97824.32;109967;1251;59716;-66
2022/05/07 04:09:33;;;;;;;5.50;4.90;;;;;;;9.88;70.55;97825.34;110206;1250;59648;-69
2022/05/07 04:12:03;;;;;;;7.60;4.90;;;;;;;9.90;70.78;97823.82;109872;1252;71361;-66
2022/05/07 04:14:33;;;;;;;;;;;;;;;9.93;70.75;97824.48;109887;1253;67640;-68
2022/05/07 04:17:02;;;;;;;8.80;5.90;;;;;;;9.99;70.09;97826.91;109973;1251;69154;-67
2022/05/07 04:19:31;;;;;;;8.90;4.70;;;;;;;10.05;70.80;97824.61;110204;1249;59806;-67
2022/05/07 04:22:02;;;;;;;;;;;;;;;10.13;70.04;97827.77;109920;1250;59760;-67
2022/05/07 04:24:39;;;;;;;6.00;4.60;;;;;;;10.22;70.71;97833.46;109966;1251;71628;-67
2022/05/07 04:27:08;;;;;;;9.70;6.40;;;;;;;10.30;71.44;97834.71;110225;1250;68624;-67
2022/05/07 04:29:39;;;;;;;8.90;5.70;;;;;;;10.37;71.33;97838.95;110083;1250;68725;-69
2022/05/07 04:32:16;;;;;;;11.30;6.70;;;;;;;10.45;70.64;97840.17;110113;1250;60027;-68
2022/05/07 04:34:50;;;;;;;38.50;18.60;;;;;;;10.53;71.01;97843.13;110197;1250;59687;-66
2022/05/07 04:37:19;;;;;;;48.60;22.90;;;;;;;10.60;71.24;97841.27;110002;1251;71605;-69
2022/05/07 04:39:49;;;;;;;22.20;11.40;;;;;;;10.70;70.36;97844.10;109942;1250;68449;-68
2022/05/07 04:42:18;;;;;;;20.10;11.20;;;;;;;10.81;70.54;97847.07;110043;1251;69209;-66
2022/05/07 04:44:53;;;;;;;13.10;10.10;;;;;;;10.90;70.95;97845.70;110152;1250;59697;-67
2022/05/07 04:47:38;;;;;;;8.60;6.80;;;;;;;11.00;69.67;97841.23;109879;1251;59670;-66
2022/05/07 04:50:17;;;;;;;12.40;8.40;;;;;;;11.12;69.15;97841.59;110145;1251;70799;-68
2022/05/07 04:52:49;;;;;;;19.30;11.50;;;;;;;11.23;70.85;97841.40;109953;1250;68633;-68
2022/05/07 04:55:19;;;;;;;21.30;12.20;;;;;;;11.30;71.15;97846.53;109992;1251;68244;-66
2022/05/07 04:57:53;;;;;;;28.20;15.60;;;;;;;11.37;71.83;97846.52;110008;1251;59735;-66
2022/05/07 05:00:25;;;;;;;64.00;33.50;;;;;;;11.47;71.33;97848.46;109923;1250;59739;-67
2022/05/07 05:03:00;;;;;;;151.10;64.60;;;;;;;11.58;71.61;97849.46;109689;1250;70784;-66
2022/05/07 05:05:30;;;;;;;187.00;72.20;;;;;;;11.70;70.86;97852.23;110156;1250;67927;-67
2022/05/07 05:08:05;;;;;;;152.20;57.20;;;;;;;11.89;69.10;97858.83;110199;1249;68399;-66
2022/05/07 05:10:34;;;;;;;47.20;21.90;;;;;;;12.05;68.12;97860.44;109993;1250;59690;-68
2022/05/07 05:13:03;;;;;;;29.30;15.00;;;;;;;12.24;68.19;97863.30;110224;1250;59599;-67
2022/05/07 05:15:32;;;;;;;45.10;21.20;;;;;;;12.41;67.67;97865.41;110029;1250;69707;-67
2022/05/07 05:18:06;;;;;;;52.90;25.10;;;;;;;12.57;67.49;97867.85;109915;1251;68725;-67
2022/05/07 05:20:38;;;;;;;74.90;33.90;;;;;;;12.75;68.03;97865.86;110186;1249;68552;-66
2022/05/07 05:23:14;;;;;;;65.10;27.70;;;;;;;12.96;66.58;97867.26;110013;1250;60173;-67
2022/05/07 05:25:47;;;;;;;48.60;21.60;;;;;;;13.18;64.70;97861.54;110136;1249;59691;-67
2022/05/07 05:28:45;;;;;;;36.70;18.20;;;;;;;13.46;63.34;97861.74;109910;1249;71466;-67
2022/05/07 05:31:15;;;;;;;28.50;14.80;;;;;;;13.65;61.55;97861.47;110057;1251;68664;-68
2022/05/07 05:33:48;;;;;;;25.40;13.20;;;;;;;13.88;61.33;97864.20;110050;1251;68546;-67
2022/05/07 05:36:22;;;;;;;22.00;12.20;;;;;;;14.09;61.52;97865.13;109958;1251;59678;-66
2022/05/07 05:38:51;;;;;;;18.40;10.60;;;;;;;14.25;61.04;97862.61;109896;1251;59744;-67
2022/05/07 05:41:23;;;;;;;10.30;5.70;;;;;;;14.43;57.02;97867.88;109981;1251;71589;-67
2022/05/07 05:43:52;;;;;;;8.50;4.70;;;;;;;14.58;54.66;97869.48;109923;1250;68680;-68
2022/05/07 05:46:22;;;;;;;7.00;4.10;;;;;;;14.74;54.47;97875.55;110177;1250;69495;-68
2022/05/07 05:48:51;;;;;;;6.50;5.00;;;;;;;14.91;52.69;97876.73;109942;1251;59747;-67
2022/05/07 05:51:21;;;;;;;6.60;4.40;;;;;;;14.99;50.66;97874.52;110217;1250;59632;-71
2022/05/07 05:53:57;;;;;;;6.80;4.50;;;;;;;15.13;52.06;97871.90;109938;1251;71703;-68
2022/05/07 05:56:31;;;;;;;6.70;5.00;;;;;;;15.19;50.64;97873.18;109839;1251;67783;-68
2022/05/07 05:59:01;;;;;;;7.80;5.20;;;;;;;15.22;49.69;97870.94;109951;1251;69491;-65
2022/05/07 06:01:35;;;;;;;7.40;5.40;;;;;;;15.41;52.24;97874.31;109968;1251;59735;-71
2022/05/07 06:04:18;;;;;;;9.30;7.30;;;;;;;15.56;52.91;97875.50;109955;1250;59696;-68
2022/05/07 06:06:47;;;;;;;11.80;8.80;;;;;;;15.44;52.70;97874.55;110013;1250;71584;-67
2022/05/07 06:09:16;;;;;;;11.70;7.80;;;;;;;15.49;52.75;97876.94;109982;1251;68755;-67
2022/05/07 06:11:46;;;;;;;11.40;6.70;;;;;;;15.60;53.31;97876.14;109897;1251;69428;-67
2022/05/07 06:14:15;;;;;;;7.40;4.90;;;;;;;15.80;52.81;97873.10;109902;1251;59667;-68
2022/05/07 06:16:44;;;;;;;9.70;6.00;;;;;;;15.93;51.34;97873.15;109953;1251;59764;-67
2022/05/07 06:19:15;;;;;;;9.40;5.80;;;;;;;15.95;50.51;97873.38;109937;1251;71662;-66
2022/05/07 06:21:51;;;;;;;8.20;6.10;;;;;;;15.78;50.10;97876.57;109969;1251;68420;-68
2022/05/07 06:27:29;;;;;;;9.70;6.00;;;;;;;15.60;50.05;97872.52;109899;1250;59665;-66
2022/05/07 06:30:03;;;;;;;7.50;5.70;;;;;;;15.32;50.80;97870.48;110011;1251;59741;-67
2022/05/07 06:32:41;;;;;;;7.80;5.30;;;;;;;15.25;51.80;97876.20;109943;1251;70524;-68
2022/05/07 06:35:10;;;;;;;6.70;4.50;;;;;;;15.25;51.28;97876.51;109925;1251;67647;-68
2022/05/07 06:37:51;;;;;;;5.60;4.30;;;;;;;15.27;50.91;97871.40;109959;1251;69594;-67
2022/05/07 06:40:20;;;;;;;6.60;4.90;;;;;;;15.33;51.03;97874.09;109871;1251;59703;-67
2022/05/07 06:42:50;;;;;;;5.10;4.10;;;;;;;15.39;49.92;97871.16;109991;1251;59687;-67
2022/05/07 06:45:24;;;;;;;6.20;4.40;;;;;;;15.52;49.96;97873.01;109992;1250;69789;-68
2022/05/07 06:47:54;;;;;;;6.60;4.60;;;;;;;15.63;48.84;97872.60;109944;1251;68728;-68
2022/05/07 06:50:25;;;;;;;7.10;4.60;;;;;;;15.65;48.11;97875.81;109890;1251;69708;-67
2022/05/07 06:52:54;;;;;;;7.60;4.10;;;;;;;15.67;47.98;97879.67;109801;1253;59649;-66
2022/05/07 06:55:23;;;;;;;6.80;4.40;;;;;;;15.57;47.44;97883.35;110038;1251;59657;-67
2022/05/07 06:57:53;;;;;;;7.50;4.40;;;;;;;15.65;47.79;97883.67;109958;1251;70575;-72
2022/05/07 07:00:42;;;;;;;8.40;4.10;;;;;;;15.72;46.94;97883.56;109847;1251;67988;-70
2022/05/07 07:03:11;;;;;;;6.60;4.30;;;;;;;15.86;46.95;97880.81;109875;1251;69507;-68
2022/05/07 07:05:40;;;;;;;9.30;4.30;;;;;;;16.04;45.42;97880.88;109991;1250;59740;-68
2022/05/07 07:08:12;;;;;;;5.20;4.20;;;;;;;16.17;45.65;97883.05;109937;1251;59672;-66
2022/05/07 07:10:42;;;;;;;5.70;4.00;;;;;;;16.33;44.98;97885.14;109881;1251;71398;-67
2022/05/07 07:13:11;;;;;;;6.50;4.70;;;;;;;16.50;44.82;97880.64;109967;1250;67178;-66
2022/05/07 07:15:40;;;;;;;6.00;4.00;;;;;;;16.62;44.50;97882.73;109906;1251;69461;-68
2022/05/07 07:18:09;;;;;;;6.30;4.00;;;;;;;16.81;43.29;97884.72;109900;1250;59731;-66
2022/05/07 07:20:43;;;;;;;7.80;4.40;;;;;;;16.93;43.25;97885.08;109807;1251;59729;-68
2022/05/07 07:23:12;;;;;;;7.40;4.20;;;;;;;17.11;43.68;97887.08;110007;1249;72231;-73
2022/05/07 07:25:42;;;;;;;10.10;4.40;;;;;;;17.32;43.25;97881.41;109766;1252;67797;-66
2022/05/07 07:28:12;;;;;;;5.10;3.70;;;;;;;17.37;42.18;97879.71;109946;1250;68609;-68
2022/05/07 07:30:41;;;;;;;5.70;3.50;;;;;;;17.47;42.44;97881.65;109880;1251;59766;-67
2022/05/07 07:33:13;;;;;;;6.80;3.90;;;;;;;17.54;42.10;97883.48;109935;1251;59595;-67
2022/05/07 07:35:44;;;;;;;8.30;3.90;;;;;;;17.59;41.92;97881.53;109972;1251;71558;-69
2022/05/07 07:38:13;;;;;;;5.70;3.80;;;;;;;17.66;41.79;97886.18;109906;1250;68615;-66
2022/05/07 07:40:49;;;;;;;6.90;4.60;;;;;;;17.73;41.27;97887.46;109972;1251;69310;-68
2022/05/07 07:43:19;;;;;;;7.00;4.10;;;;;;;17.74;41.19;97892.14;109850;1250;59735;-67
2022/05/07 07:48:39;;;;;;;7.10;4.60;;;;;;;17.83;41.76;97895.38;109902;1251;71608;-67
2022/05/07 07:51:08;;;;;;;6.50;3.90;;;;;;;17.95;41.51;97889.80;109824;1251;67629;-70
2022/05/07 07:53:38;;;;;;;4.50;4.00;;;;;;;18.03;41.09;97895.33;109763;1251;69475;-69
2022/05/07 07:56:07;;;;;;;6.30;4.40;;;;;;;18.04;40.61;97891.36;110192;1249;59633;-68
2022/05/07 07:58:36;;;;;;;6.00;4.30;;;;;;;18.02;40.81;97894.39;110202;1249;59634;-69
2022/05/07 08:01:05;;;;;;;6.70;4.00;;;;;;;18.02;40.79;97894.05;110179;1250;71617;-68
2022/05/07 08:03:34;;;;;;;4.20;3.30;;;;;;;18.08;40.77;97892.58;109837;1249;68700;-67
2022/05/07 08:06:03;;;;;;;6.30;4.00;;;;;;;18.24;40.29;97893.49;110009;1250;69530;-69
2022/05/07 08:14:07;;;;;;;7.30;4.40;;;;;;;18.61;38.99;97895.08;109904;1250;70849;-68
2022/05/07 08:16:37;;;;;;;6.70;4.40;;;;;;;18.71;39.20;97894.14;109841;1251;68094;-68
2022/05/07 08:19:08;;;;;;;6.30;4.30;;;;;;;18.80;39.07;97895.30;109955;1251;68975;-68
2022/05/07 08:21:37;;;;;;;5.80;4.20;;;;;;;18.89;38.41;97896.40;109905;1251;59699;-69
2022/05/07 08:24:06;;;;;;;7.00;4.40;;;;;;;18.90;37.99;97894.73;109752;1251;59713;-66
2022/05/07 08:26:35;;;;;;;5.10;4.00;;;;;;;18.85;37.98;97893.45;109946;1250;71619;-69
2022/05/07 08:29:04;;;;;;;5.50;3.90;;;;;;;19.03;38.74;97893.27;110165;1250;68410;-69
2022/05/07 08:31:33;;;;;;;6.30;4.00;;;;;;;19.23;38.03;97895.95;109808;1250;69755;-70
2022/05/07 08:34:02;;;;;;;6.40;4.10;;;;;;;19.42;37.88;97892.81;110063;1250;59709;-68
2022/05/07 08:36:31;;;;;;;5.30;4.10;;;;;;;19.56;36.88;97895.25;110170;1248;59579;-68
2022/05/07 08:39:00;;;;;;;4.80;3.40;;;;;;;19.66;36.69;97896.41;109923;1251;70560;-68
2022/05/07 08:41:29;;;;;;;4.40;2.90;;;;;;;19.95;37.69;97897.13;110053;1250;68608;-70
2022/05/07 08:43:59;;;;;;;7.30;4.60;;;;;;;20.22;35.42;97894.69;109964;1250;68579;-68
2022/05/07 08:46:28;;;;;;;5.90;4.10;;;;;;;20.35;35.63;97896.40;110074;1249;59690;-68
2022/05/07 08:48:58;;;;;;;5.90;4.40;;;;;;;20.74;34.92;97900.59;109913;1250;59703;-69
2022/05/07 08:51:27;;;;;;;4.60;3.50;;;;;;;21.08;34.17;97901.08;109946;1251;70612;-68
2022/05/07 08:53:56;;;;;;;4.90;4.20;;;;;;;21.43;34.69;97899.29;110166;1249;68703;-69
2022/05/07 08:56:26;;;;;;;;;;;;;;;21.72;33.17;97895.23;109834;1251;68354;-67
2022/05/07 08:58:55;;;;;;;5.70;4.10;;;;;;;22.01;32.61;97893.38;109815;1251;59741;-68
2022/05/07 09:01:24;;;;;;;4.90;3.70;;;;;;;22.38;33.42;97897.80;110137;1250;59737;-69
2022/05/07 09:03:53;;;;;;;5.60;3.90;;;;;;;22.32;31.76;97888.48;109873;1250;70796;-70
2022/05/07 09:06:26;;;;;;;5.10;3.60;;;;;;;22.45;31.96;97890.20;110105;1250;68454;-71
2022/05/07 09:08:57;;;;;;;4.60;3.40;;;;;;;22.72;32.36;97884.03;109769;1251;69216;-68
2022/05/07 09:11:26;;;;;;;5.80;4.00;;;;;;;23.07;32.61;97885.80;109797;1251;59813;-70
2022/05/07 09:14:05;;;;;;;6.50;4.20;;;;;;;22.91;31.08;97884.79;109756;1251;59736;-72
2022/05/07 09:16:42;;;;;;;5.30;4.30;;;;;;;22.79;30.71;97883.98;109980;1250;70888;-72
2022/05/07 09:19:24;;;;;;;6.90;4.60;;;;;;;23.03;30.34;97880.55;109828;1251;68618;-72
2022/05/07 09:22:07;;;;;;;5.60;3.70;;;;;;;23.23;30.19;97879.28;109898;1251;69438;-69
2022/05/07 09:24:37;;;;;;;5.80;4.40;;;;;;;23.44;29.77;97877.29;109751;1249;59741;-71
2022/05/07 09:27:07;;;;;;;5.60;4.70;;;;;;;23.61;29.21;97880.02;109816;1249;59625;-69
2022/05/07 09:29:36;;;;;;;6.00;4.60;;;;;;;23.84;29.57;97877.75;109796;1251;70866;-68
2022/05/07 09:32:13;;;;;;;4.70;4.20;;;;;;;24.08;28.93;97874.21;109833;1251;67802;-71
2022/05/07 09:37:41;;;;;;;5.60;4.00;;;;;;;24.61;28.56;97869.80;110032;1251;59663;-68
2022/05/07 09:40:12;;;;;;;5.30;4.50;;;;;;;25.11;28.56;97874.08;109930;1250;59734;-69
2022/05/07 09:42:42;;;;;;;6.20;4.50;;;;;;;25.41;28.34;97866.40;109980;1251;71559;-69
2022/05/07 09:45:11;;;;;;;6.70;4.50;;;;;;;25.84;27.40;97860.40;110204;1248;68427;-69
2022/05/07 09:47:43;;;;;;;6.50;4.20;;;;;;;26.16;26.76;97857.59;110085;1250;69267;-70
2022/05/07 09:50:22;;;;;;;5.00;4.40;;;;;;;26.40;26.01;97855.05;109905;1251;59662;-68
2022/05/07 09:58:28;;;;;;;4.80;3.70;;;;;;;26.15;26.53;97844.61;109370;1251;458231;-69
2022/05/07 10:01:06;;;;;;;6.40;5.20;;;;;;;26.32;26.63;97840.39;109679;1251;69552;-71
2022/05/07 10:03:46;;;;;;;5.20;4.40;;;;;;;26.59;26.86;97836.23;109917;1251;59706;-70
2022/05/07 10:06:36;;;;;;;5.30;3.90;;;;;;;26.05;26.07;97835.29;109999;1250;59621;-71
2022/05/07 10:09:21;;;;;;;5.90;4.40;;;;;;;26.06;26.26;97831.37;109749;1251;70616;-71
2022/05/07 10:11:55;;;;;;;6.20;4.30;;;;;;;25.85;26.74;97831.49;109738;1251;68646;-68
2022/05/07 10:14:28;;;;;;;5.80;4.10;;;;;;;25.34;27.68;97830.50;109875;1251;69543;-69
2022/05/07 10:16:59;;;;;;;5.90;4.50;;;;;;;25.06;27.81;97829.79;109914;1250;59793;-72
2022/05/07 10:19:41;;;;;;;5.50;4.00;;;;;;;25.69;27.29;97825.35;109708;1251;59710;-68
2022/05/07 10:22:16;;;;;;;4.40;3.50;;;;;;;26.22;26.52;97820.08;109748;1251;71520;-71
2022/05/07 10:24:45;;;;;;;4.40;3.50;;;;;;;26.73;26.31;97820.30;109932;1251;69167;-71
2022/05/07 10:27:31;;;;;;;5.20;3.70;;;;;;;26.88;26.20;97814.85;109790;1251;69579;-69
2022/05/07 10:30:13;;;;;;;4.80;4.00;;;;;;;27.19;25.53;97808.95;109936;1250;59740;-69
2022/05/07 10:33:03;;;;;;;5.80;4.30;;;;;;;27.10;26.02;97805.52;109802;1251;59630;-70
2022/05/07 10:35:40;;;;;;;5.20;4.00;;;;;;;27.21;26.51;97805.52;109854;1251;70937;-71
2022/05/07 10:38:15;;;;;;;5.90;3.90;;;;;;;28.10;26.24;97800.06;109824;1251;67993;-72
2022/05/07 10:40:54;;;;;;;6.50;5.10;;;;;;;28.21;24.54;97796.38;110088;1250;68675;-70
2022/05/07 10:43:25;;;;;;;;;;;;;;;27.58;25.65;97787.91;109917;1250;59742;-70
2022/05/07 10:46:08;;;;;;;6.10;4.00;;;;;;;27.73;25.14;97782.95;109966;1251;59736;-71
2022/05/07 10:49:01;;;;;;;5.50;4.70;;;;;;;26.64;26.21;97780.90;109922;1249;71817;-70
2022/05/07 10:51:30;;;;;;;4.90;4.40;;;;;;;26.63;26.10;97779.20;110002;1250;68990;-72
2022/05/07 10:54:02;;;;;;;5.30;4.70;;;;;;;26.68;26.70;97777.23;110184;1250;69448;-72
2022/05/07 10:56:34;;;;;;;4.90;4.10;;;;;;;26.49;26.52;97777.68;110206;1249;59763;-69
2022/05/07 10:59:03;;;;;;;4.50;3.70;;;;;;;26.70;27.12;97773.65;110050;1250;59664;-69
2022/05/07 11:01:34;;;;;;;5.30;3.60;;;;;;;27.51;26.93;97771.23;109965;1250;70553;-71
2022/05/07 11:04:05;;;;;;;5.00;4.20;;;;;;;27.86;26.34;97771.42;110007;1250;67946;-70
2022/05/07 11:06:43;;;;;;;4.80;3.50;;;;;;;28.47;25.40;97771.07;109829;1251;68468;-69
2022/05/07 11:09:17;;;;;;;5.60;3.80;;;;;;;28.92;24.43;97772.32;109991;1250;59712;-68
2022/05/07 11:11:49;;;;;;;5.70;4.40;;;;;;;28.83;24.70;97773.00;110007;1250;59682;-70
2022/05/07 11:14:30;;;;;;;6.60;4.80;;;;;;;27.26;25.39;97767.27;109795;1253;70702;-68
2022/05/07 11:17:03;;;;;;;4.80;4.30;;;;;;;26.91;25.73;97764.45;109993;1251;68637;-72
2022/05/07 11:19:37;;;;;;;7.10;4.80;;;;;;;26.15;27.58;97758.00;109806;1251;68659;-69
2022/05/07 11:22:11;;;;;;;13.70;12.30;;;;;;;26.84;27.63;97752.89;109920;1251;59700;-70
2022/05/07 11:24:40;;;;;;;11.70;10.50;;;;;;;27.31;27.71;97753.04;109986;1250;59628;-69
2022/05/07 11:27:11;;;;;;;;;;;;;;;27.52;27.62;97749.39;109897;1250;72011;-69
2022/05/07 11:29:40;;;;;;;23.80;21.40;;;;;;;28.00;26.85;97752.19;109618;1251;67958;-68
2022/05/07 11:32:12;;;;;;;9.50;7.60;;;;;;;28.48;25.72;97754.06;109959;1251;69421;-71
2022/05/07 11:34:42;;;;;;;5.60;4.20;;;;;;;28.19;25.00;97750.75;109790;1251;59743;-69
2022/05/07 11:37:14;;;;;;;6.20;5.20;;;;;;;28.73;25.12;97749.36;109993;1251;59726;-69
2022/05/07 11:39:57;;;;;;;21.20;15.40;;;;;;;28.53;25.27;97744.51;109986;1250;70782;-70
2022/05/07 11:42:32;;;;;;;7.20;4.80;;;;;;;28.14;25.02;97738.63;109908;1250;68566;-68
2022/05/07 11:45:27;;;;;;;5.20;4.30;;;;;;;28.06;25.57;97735.39;109967;1250;69484;-68
2022/05/07 11:48:05;;;;;;;5.70;4.50;;;;;;;27.96;26.02;97733.71;109921;1251;59671;-70
2022/05/07 11:50:40;;;;;;;5.20;4.20;;;;;;;27.58;25.66;97723.64;109827;1250;59674;-68
2022/05/07 11:53:13;;;;;;;9.20;6.90;;;;;;;27.57;26.26;97722.16;109802;1251;72125;-69
2022/05/07 11:55:43;;;;;;;5.80;4.50;;;;;;;27.58;26.39;97720.63;109988;1249;67870;-69
2022/05/07 11:58:22;;;;;;;21.80;19.50;;;;;;;27.52;25.28;97723.38;109908;1250;69349;-68
2022/05/07 12:00:54;;;;;;;22.90;19.10;;;;;;;27.71;25.21;97722.13;110150;1250;59738;-71
2022/05/07 12:03:27;;;;;;;12.50;10.70;;;;;;;27.80;26.91;97720.36;109985;1249;59636;-69
2022/05/07 12:05:57;;;;;;;6.80;5.30;;;;;;;27.56;26.14;97717.04;110184;1250;71661;-69
2022/05/07 12:08:32;;;;;;;5.30;4.60;;;;;;;27.50;26.06;97710.56;109883;1250;68562;-70
2022/05/07 12:11:04;;;;;;;6.40;4.80;;;;;;;27.74;25.18;97711.04;109764;1250;69470;-69
2022/05/07 12:13:33;;;;;;;4.80;4.30;;;;;;;27.55;25.50;97707.75;109994;1250;59682;-72
2022/05/07 12:18:51;;;;;;;5.70;4.50;;;;;;;27.36;25.03;97700.13;110052;1250;70806;-71
2022/05/07 12:29:49;;;;;;;5.90;4.70;;;;;;;26.69;25.97;97686.73;109978;1250;59734;-70